createdAt,value
2018-02-22T00:02:27.177Z,76.40
2018-02-22T00:04:58.145Z,76.40
2018-02-22T00:07:29.228Z,76.30
2018-02-22T00:09:58.699Z,76.30
2018-02-22T00:12:28.363Z,76.40
2018-02-22T00:14:58.203Z,76.60
2018-02-22T00:17:28.563Z,76.20
2018-02-22T00:20:00.570Z,76.30
2018-02-22T00:22:35.020Z,76.30
2018-02-22T00:25:05.618Z,76.70
2018-02-22T00:27:35.121Z,76.60
2018-02-22T00:30:04.774Z,76.50
2018-02-22T00:32:38.266Z,77.00
2018-02-22T00:35:10.619Z,77.00
2018-02-22T00:37:40.203Z,77.80
2018-02-22T00:40:23.986Z,77.00
2018-02-22T00:42:53.510Z,77.00
2018-02-22T00:45:39.982Z,77.20
2018-02-22T00:48:24.448Z,77.20
2018-02-22T00:51:06.613Z,77.10
2018-02-22T00:53:36.380Z,76.80
2018-02-22T00:56:07.020Z,76.50
2018-02-22T00:58:45.641Z,77.20
2018-02-22T01:01:18.891Z,76.50
2018-02-22T01:03:52.558Z,76.40
2018-02-22T01:06:22.053Z,76.10
2018-02-22T01:08:54.911Z,76.00
2018-02-22T01:11:40.564Z,76.10
2018-02-22T01:14:13.113Z,76.10
2018-02-22T01:16:44.224Z,76.10
2018-02-22T01:19:24.871Z,76.10
2018-02-22T01:22:05.250Z,76.00
2018-02-22T01:24:52.265Z,76.00
2018-02-22T01:27:21.870Z,76.00
2018-02-22T01:29:52.139Z,75.90
2018-02-22T01:32:22.087Z,75.90
2018-02-22T01:34:51.440Z,75.60
2018-02-22T01:37:20.868Z,75.50
2018-02-22T01:39:50.337Z,75.50
2018-02-22T01:42:19.769Z,75.50
2018-02-22T01:44:49.140Z,75.50
2018-02-22T01:47:19.441Z,75.20
2018-02-22T01:49:48.926Z,75.10
2018-02-22T01:52:18.377Z,75.00
2018-02-22T01:54:48.495Z,75.30
2018-02-22T01:57:19.439Z,75.30
2018-02-22T01:59:48.899Z,75.30
2018-02-22T02:02:18.341Z,75.60
2018-02-22T02:04:48.525Z,75.50
2018-02-22T02:07:17.898Z,75.50
2018-02-22T02:09:47.312Z,76.50
2018-02-22T02:12:16.849Z,75.70
2018-02-22T02:14:47.514Z,76.30
2018-02-22T02:17:17.579Z,75.50
2018-02-22T02:19:49.156Z,75.90
2018-02-22T02:22:18.620Z,75.70
2018-02-22T02:24:48.126Z,75.70
2018-02-22T02:27:17.549Z,76.10
2018-02-22T02:29:47.373Z,76.20
2018-02-22T02:32:16.764Z,76.40
2018-02-22T02:34:47.694Z,76.50
2018-02-22T02:37:28.264Z,76.60
2018-02-22T02:40:03.602Z,76.90
2018-02-22T02:42:33.258Z,76.90
2018-02-22T02:45:02.730Z,76.90
2018-02-22T02:47:33.039Z,77.00
2018-02-22T02:50:03.197Z,76.90
2018-02-22T02:52:33.693Z,76.70
2018-02-22T02:55:03.155Z,76.70
2018-02-22T02:57:32.588Z,76.70
2018-02-22T03:00:02.108Z,76.50
2018-02-22T03:02:31.940Z,76.40
2018-02-22T03:05:01.904Z,76.00
2018-02-22T03:07:31.516Z,76.30
2018-02-22T03:10:01.006Z,76.40
2018-02-22T03:12:30.716Z,76.30
2018-02-22T03:15:00.621Z,76.20
2018-02-22T03:17:30.206Z,76.30
2018-02-22T03:20:10.754Z,76.40
2018-02-22T03:22:56.960Z,76.40
2018-02-22T03:25:26.649Z,76.70
2018-02-22T03:27:56.107Z,76.80
2018-02-22T03:30:25.502Z,76.90
2018-02-22T03:32:54.970Z,77.10
2018-02-22T03:35:24.486Z,77.30
2018-02-22T03:37:53.873Z,77.40
2018-02-22T03:40:23.438Z,77.40
2018-02-22T03:42:52.795Z,77.20
2018-02-22T03:45:22.227Z,77.20
2018-02-22T03:47:51.673Z,77.10
2018-02-22T03:50:21.331Z,76.90
2018-02-22T03:52:51.656Z,76.50
2018-02-22T03:55:21.980Z,76.40
2018-02-22T03:57:51.513Z,76.30
2018-02-22T04:00:21.463Z,76.10
2018-02-22T04:02:51.775Z,76.00
2018-02-22T04:05:21.180Z,75.90
2018-02-22T04:07:51.438Z,76.00
2018-02-22T04:10:22.963Z,75.90
2018-02-22T04:12:52.682Z,75.90
2018-02-22T04:15:22.073Z,75.10
2018-02-22T04:17:51.476Z,75.70
2018-02-22T04:20:21.032Z,76.00
2018-02-22T04:22:50.395Z,76.00
2018-02-22T04:25:20.562Z,75.70
2018-02-22T04:27:50.020Z,75.70
2018-02-22T04:30:19.396Z,75.70
2018-02-22T04:32:48.936Z,75.70
2018-02-22T04:35:18.666Z,75.70
2018-02-22T04:37:48.091Z,75.80
2018-02-22T04:40:17.519Z,75.50
2018-02-22T04:42:47.173Z,75.50
2018-02-22T04:45:16.560Z,75.60
2018-02-22T04:47:45.906Z,75.60
2018-02-22T04:50:15.391Z,75.50
2018-02-22T04:52:45.758Z,75.70
2018-02-22T04:55:15.604Z,75.70
2018-02-22T04:57:45.957Z,75.60
2018-02-22T05:00:16.246Z,75.60
2018-02-22T05:02:47.619Z,75.90
2018-02-22T05:05:17.720Z,75.90
2018-02-22T05:07:47.219Z,75.80
2018-02-22T05:10:16.758Z,75.60
2018-02-22T05:12:46.276Z,75.70
2018-02-22T05:15:15.639Z,75.70
2018-02-22T05:17:46.542Z,75.70
2018-02-22T05:20:15.935Z,75.70
2018-02-22T05:22:45.386Z,75.60
2018-02-22T05:25:14.780Z,75.70
2018-02-22T05:27:44.316Z,75.80
2018-02-22T05:30:14.513Z,75.70
2018-02-22T05:32:47.247Z,75.70
2018-02-22T05:35:20.980Z,75.60
2018-02-22T05:37:50.560Z,75.50
2018-02-22T05:40:20.059Z,75.40
2018-02-22T05:42:49.463Z,75.70
2018-02-22T05:45:19.239Z,75.90
2018-02-22T05:47:48.675Z,75.80
2018-02-22T05:50:18.164Z,75.90
2018-02-22T05:52:47.807Z,76.00
2018-02-22T05:55:17.350Z,76.80
2018-02-22T05:57:46.860Z,76.70
2018-02-22T06:00:18.768Z,76.20
2018-02-22T06:02:48.492Z,76.30
2018-02-22T06:05:18.030Z,75.90
2018-02-22T06:07:47.528Z,75.90
2018-02-22T06:10:17.092Z,75.80
2018-02-22T06:12:46.805Z,75.90
2018-02-22T06:15:18.585Z,76.10
2018-02-22T06:18:01.832Z,76.10
2018-02-22T06:20:32.573Z,76.10
2018-02-22T06:23:02.084Z,76.00
2018-02-22T06:25:31.538Z,75.60
2018-02-22T06:28:01.855Z,75.30
2018-02-22T06:30:31.699Z,75.30
2018-02-22T06:33:01.591Z,75.20
2018-02-22T06:35:31.817Z,75.60
2018-02-22T06:38:01.380Z,76.10
2018-02-22T06:40:31.711Z,75.50
2018-02-22T06:43:02.596Z,75.80
2018-02-22T06:45:32.188Z,75.60
2018-02-22T06:48:01.972Z,75.50
2018-02-22T06:50:31.820Z,75.30
2018-02-22T06:53:02.088Z,75.30
2018-02-22T06:55:32.478Z,75.50
2018-02-22T06:58:01.956Z,75.60
2018-02-22T07:00:31.493Z,75.50
2018-02-22T07:03:01.337Z,75.30
2018-02-22T07:05:30.991Z,75.20
2018-02-22T07:08:02.571Z,75.10
2018-02-22T07:10:33.919Z,75.30
2018-02-22T07:13:03.480Z,75.00
2018-02-22T07:15:32.869Z,74.60
2018-02-22T07:18:03.266Z,73.80
2018-02-22T07:20:33.770Z,73.80
2018-02-22T07:23:16.650Z,73.50
2018-02-22T07:25:39.158Z,73.40
2018-02-22T07:28:08.652Z,74.00
2018-02-22T07:30:38.054Z,72.90
2018-02-22T07:33:09.187Z,73.00
2018-02-22T07:35:39.730Z,72.90
2018-02-22T07:38:09.302Z,73.00
2018-02-22T07:40:38.769Z,73.00
2018-02-22T07:43:08.474Z,72.60
2018-02-22T07:45:38.170Z,72.20
2018-02-22T07:48:08.966Z,72.30
2018-02-22T07:50:40.249Z,72.20
2018-02-22T07:53:09.830Z,72.40
2018-02-22T07:55:39.470Z,72.40
2018-02-22T07:58:08.911Z,71.70
2018-02-22T08:00:39.726Z,71.00
2018-02-22T08:03:09.128Z,71.00
2018-02-22T08:05:40.222Z,70.20
2018-02-22T08:08:09.697Z,70.20
2018-02-22T08:10:39.281Z,70.10
2018-02-22T08:13:08.878Z,69.90
2018-02-22T08:15:38.447Z,68.90
2018-02-22T08:18:08.110Z,68.70
2018-02-22T08:20:37.621Z,68.80
2018-02-22T08:23:08.106Z,68.20
2018-02-22T08:25:41.165Z,68.40
2018-02-22T08:28:10.679Z,68.70
2018-02-22T08:30:41.148Z,67.80
2018-02-22T08:33:21.146Z,68.30
2018-02-22T08:35:51.114Z,68.30
2018-02-22T08:38:20.668Z,67.50
2018-02-22T08:40:55.866Z,66.50
2018-02-22T08:43:25.940Z,66.30
2018-02-22T08:45:59.644Z,65.90
2018-02-22T08:48:29.442Z,66.00
2018-02-22T08:51:05.842Z,65.80
2018-02-22T08:53:35.390Z,65.90
2018-02-22T08:56:05.173Z,64.50
2018-02-22T08:58:35.763Z,63.70
2018-02-22T09:01:09.513Z,63.80
2018-02-22T09:03:47.209Z,61.70
2018-02-22T09:06:21.784Z,61.60
2018-02-22T09:08:51.831Z,60.80
2018-02-22T09:11:21.509Z,60.50
2018-02-22T09:13:50.979Z,60.20
2018-02-22T09:16:20.371Z,60.30
2018-02-22T09:18:50.065Z,59.50
2018-02-22T09:21:19.642Z,58.70
2018-02-22T09:23:49.086Z,58.10
2018-02-22T09:26:18.946Z,58.50
2018-02-22T09:28:48.470Z,57.20
2018-02-22T09:31:18.025Z,57.50
2018-02-22T09:33:48.510Z,56.30
2018-02-22T09:36:17.947Z,56.20
2018-02-22T09:38:48.318Z,56.60
2018-02-22T09:41:17.875Z,56.60
2018-02-22T09:43:49.844Z,56.80
2018-02-22T09:46:19.351Z,56.30
2018-02-22T09:48:49.332Z,55.40
2018-02-22T09:51:19.729Z,55.30
2018-02-22T09:53:49.247Z,55.20
2018-02-22T09:56:18.695Z,54.10
2018-02-22T09:58:48.440Z,53.90
2018-02-22T10:01:18.085Z,53.20
2018-02-22T10:03:47.718Z,53.40
2018-02-22T10:06:17.808Z,52.80
2018-02-22T10:08:48.072Z,52.00
2018-02-22T10:11:17.866Z,53.40
2018-02-22T10:13:47.616Z,51.90
2018-02-22T10:16:17.117Z,52.10
2018-02-22T10:18:46.689Z,51.40
2018-02-22T10:21:17.201Z,50.70
2018-02-22T10:23:47.446Z,51.10
2018-02-22T10:26:17.470Z,50.70
2018-02-22T10:28:47.212Z,50.60
2018-02-22T10:31:17.117Z,49.70
2018-02-22T10:33:47.247Z,49.30
2018-02-22T10:36:18.543Z,49.30
2018-02-22T10:38:51.561Z,49.30
2018-02-22T10:41:30.838Z,48.70
2018-02-22T10:44:10.845Z,47.90
2018-02-22T10:46:41.611Z,47.00
2018-02-22T10:49:21.961Z,46.80
2018-02-22T10:51:52.509Z,44.80
2018-02-22T10:54:32.799Z,43.70
2018-02-22T10:57:16.063Z,44.10
2018-02-22T10:59:49.244Z,44.00
2018-02-22T11:02:54.986Z,43.60
2018-02-22T11:05:24.727Z,41.90
2018-02-22T11:07:58.790Z,33.20
2018-02-22T11:10:28.810Z,33.10
2018-02-22T11:12:59.833Z,30.90
2018-02-22T11:15:29.912Z,30.80
2018-02-22T11:18:00.017Z,30.10
2018-02-22T11:20:30.332Z,29.40
2018-02-22T11:23:01.891Z,27.80
2018-02-22T11:25:32.136Z,27.80
2018-02-22T11:28:02.317Z,28.10
2018-02-22T11:30:32.990Z,28.00
2018-02-22T11:33:03.005Z,28.10
2018-02-22T11:35:33.984Z,27.80
2018-02-22T11:38:04.981Z,27.80
2018-02-22T11:40:36.124Z,27.10
2018-02-22T11:43:11.150Z,27.10
2018-02-22T11:45:41.474Z,27.10
2018-02-22T11:48:23.453Z,26.60
2018-02-22T11:51:01.682Z,26.00
2018-02-22T11:53:31.699Z,25.00
2018-02-22T11:56:02.016Z,24.60
2018-02-22T11:58:32.409Z,25.20
2018-02-22T12:01:02.263Z,26.10
2018-02-22T12:03:32.708Z,26.00
2018-02-22T12:06:03.016Z,25.90
2018-02-22T12:08:34.059Z,26.70
2018-02-22T12:11:05.201Z,27.50
2018-02-22T12:13:35.576Z,28.00
2018-02-22T12:16:06.079Z,28.00
2018-02-22T12:18:37.360Z,26.90
2018-02-22T12:21:07.379Z,27.00
2018-02-22T12:23:38.334Z,26.30
2018-02-22T12:26:08.289Z,25.50
2018-02-22T12:28:42.133Z,24.40
2018-02-22T12:31:11.711Z,24.40
2018-02-22T12:33:45.039Z,24.30
2018-02-22T12:36:19.708Z,25.40
2018-02-22T12:38:49.472Z,25.20
2018-02-22T12:41:19.809Z,24.40
2018-02-22T12:43:52.591Z,24.00
2018-02-22T12:46:28.726Z,24.00
2018-02-22T12:49:11.485Z,24.00
2018-02-22T12:51:44.794Z,23.90
2018-02-22T12:54:16.531Z,25.30
2018-02-22T12:56:46.865Z,25.20
2018-02-22T12:59:16.914Z,25.20
2018-02-22T13:01:51.673Z,24.90
2018-02-22T13:04:30.361Z,24.20
2018-02-22T13:07:12.267Z,24.00
2018-02-22T13:09:52.519Z,24.30
2018-02-22T13:12:22.568Z,24.30
2018-02-22T13:14:55.130Z,23.80
2018-02-22T13:17:25.033Z,24.30
2018-02-22T13:20:00.096Z,24.00
2018-02-22T13:22:39.025Z,24.00
2018-02-22T13:25:09.204Z,24.20
2018-02-22T13:27:40.061Z,24.90
2018-02-22T13:30:15.754Z,24.90
2018-02-22T13:32:53.938Z,24.70
2018-02-22T13:35:23.815Z,24.20
2018-02-22T13:38:07.007Z,24.80
2018-02-22T13:40:37.294Z,24.80
2018-02-22T13:43:07.743Z,23.90
2018-02-22T13:45:39.072Z,23.30
2018-02-22T13:48:09.192Z,22.20
2018-02-22T13:51:09.672Z,22.10
2018-02-22T13:53:48.547Z,22.90
2018-02-22T13:56:40.031Z,22.80
2018-02-22T13:59:11.163Z,22.30
2018-02-22T14:02:24.765Z,22.20
2018-02-22T14:04:59.214Z,22.80
2018-02-22T14:07:29.971Z,22.60
2018-02-22T14:10:00.724Z,22.50
2018-02-22T14:12:31.009Z,21.80
2018-02-22T14:15:00.614Z,22.20
2018-02-22T14:17:30.727Z,22.00
2018-02-22T14:20:06.788Z,23.20
2018-02-22T14:22:47.198Z,23.50
2018-02-22T14:25:17.973Z,23.50
2018-02-22T14:27:51.055Z,23.90
2018-02-22T14:30:21.003Z,24.40
2018-02-22T14:32:50.822Z,24.60
2018-02-22T14:35:20.484Z,24.60
2018-02-22T14:37:50.062Z,24.40
2018-02-22T14:40:20.302Z,24.60
2018-02-22T14:42:54.251Z,24.90
2018-02-22T14:45:24.199Z,25.60
2018-02-22T14:47:54.596Z,26.60
2018-02-22T14:50:32.172Z,26.50
2018-02-22T14:53:09.188Z,29.00
2018-02-22T14:55:39.034Z,30.90
2018-02-22T14:58:15.415Z,33.10
2018-02-22T15:00:50.292Z,33.20
2018-02-22T15:03:20.018Z,33.80
2018-02-22T15:05:51.154Z,32.60
2018-02-22T15:08:34.286Z,32.70
2018-02-22T15:11:20.805Z,32.80
2018-02-22T15:14:04.302Z,33.20
2018-02-22T15:16:46.627Z,33.50
2018-02-22T15:19:22.048Z,34.10
2018-02-22T15:21:59.808Z,34.10
2018-02-22T15:24:33.641Z,34.40
2018-02-22T15:27:07.272Z,34.80
2018-02-22T15:29:39.715Z,35.30
2018-02-22T15:32:11.456Z,35.50
2018-02-22T15:34:42.461Z,36.10
2018-02-22T15:37:12.418Z,35.80
2018-02-22T15:39:42.468Z,35.60
2018-02-22T15:42:12.281Z,35.70
2018-02-22T15:44:42.962Z,36.20
2018-02-22T15:47:12.723Z,36.40
2018-02-22T15:49:53.254Z,36.90
2018-02-22T15:52:29.588Z,36.80
2018-02-22T15:55:04.004Z,37.10
2018-02-22T15:57:38.161Z,37.00
2018-02-22T16:00:07.780Z,37.40
2018-02-22T16:02:37.778Z,37.90
2018-02-22T16:05:07.686Z,38.00
2018-02-22T16:07:37.707Z,38.30
2018-02-22T16:10:08.711Z,38.30
2018-02-22T16:12:39.834Z,38.40
2018-02-22T16:15:12.512Z,38.40
2018-02-22T16:17:45.848Z,38.30
2018-02-22T16:20:22.350Z,39.00
2018-02-22T16:22:52.648Z,38.90
2018-02-22T16:25:22.781Z,38.80
2018-02-22T16:27:53.693Z,38.80
2018-02-22T16:30:59.136Z,38.60
2018-02-22T16:33:52.411Z,37.90
2018-02-22T16:36:38.524Z,37.90
2018-02-22T16:39:15.382Z,38.30
2018-02-22T16:41:45.295Z,38.70
2018-02-22T16:44:16.950Z,38.90
2018-02-22T16:46:51.029Z,39.40
2018-02-22T16:49:27.414Z,39.30
2018-02-22T16:52:10.924Z,39.20
2018-02-22T16:54:49.234Z,39.20
2018-02-22T16:57:19.462Z,39.40
2018-02-22T16:59:58.228Z,39.60
2018-02-22T17:02:37.698Z,40.00
2018-02-22T17:05:07.649Z,39.90
2018-02-22T17:07:41.887Z,40.00
2018-02-22T17:10:12.586Z,39.80
2018-02-22T17:12:42.267Z,40.00
2018-02-22T17:15:11.969Z,40.30
2018-02-22T17:17:51.344Z,40.30
2018-02-22T17:20:22.742Z,40.30
2018-02-22T17:22:53.968Z,40.30
2018-02-22T17:25:22.950Z,40.60
2018-02-22T17:28:04.196Z,41.00
2018-02-22T17:30:41.127Z,41.00
2018-02-22T17:33:14.407Z,41.00
2018-02-22T17:35:48.128Z,41.70
2018-02-22T17:38:19.215Z,41.70
2018-02-22T17:40:50.938Z,41.60
2018-02-22T17:43:25.629Z,41.70
2018-02-22T17:46:03.965Z,41.70
2018-02-22T17:48:48.741Z,42.60
2018-02-22T17:51:25.441Z,42.20
2018-02-22T17:53:56.752Z,42.00
2018-02-22T17:56:40.994Z,42.10
2018-02-22T17:59:21.683Z,42.30
2018-02-22T18:02:15.132Z,42.00
2018-02-22T18:04:59.695Z,44.30
2018-02-22T18:07:40.999Z,42.80
2018-02-22T18:10:25.056Z,42.80
2018-02-22T18:13:09.975Z,42.80
2018-02-22T18:15:56.269Z,43.30
2018-02-22T18:18:30.341Z,42.90
2018-02-22T18:21:25.292Z,43.40
2018-02-22T18:24:14.972Z,42.40
2018-02-22T18:27:05.094Z,43.00
2018-02-22T18:29:39.585Z,43.10
2018-02-22T18:32:16.842Z,43.30
2018-02-22T18:34:53.115Z,43.30
2018-02-22T18:37:30.808Z,43.00
2018-02-22T18:40:10.071Z,43.40
2018-02-22T18:42:45.952Z,43.80
2018-02-22T18:45:16.339Z,44.00
2018-02-22T18:47:48.848Z,44.80
2018-02-22T18:50:21.044Z,44.80
2018-02-22T18:52:55.523Z,45.10
2018-02-22T18:55:33.279Z,45.80
2018-02-22T18:58:06.182Z,46.50
2018-02-22T19:00:39.104Z,47.50
2018-02-22T19:03:14.989Z,48.50
2018-02-22T19:05:46.879Z,49.10
2018-02-22T19:08:17.472Z,49.00
2018-02-22T19:11:04.193Z,48.80
2018-02-22T19:13:48.596Z,46.60
2018-02-22T19:17:32.862Z,46.00
2018-02-22T19:20:03.469Z,45.10
2018-02-22T19:22:50.800Z,44.20
2018-02-22T19:25:25.058Z,44.20
2018-02-22T19:27:55.372Z,44.50
2018-02-22T19:30:33.720Z,44.40
2018-02-22T19:33:15.815Z,45.10
2018-02-22T19:35:47.425Z,47.10
2018-02-22T19:38:20.375Z,50.00
2018-02-22T19:40:56.479Z,52.60
2018-02-22T19:43:28.720Z,54.00
2018-02-22T19:46:06.196Z,56.70
2018-02-22T19:48:43.508Z,56.70
2018-02-22T19:51:14.370Z,57.60
2018-02-22T19:53:46.711Z,58.60
2018-02-22T19:56:24.239Z,59.60
2018-02-22T19:59:02.564Z,60.50
2018-02-22T20:01:38.468Z,61.50
2018-02-22T20:04:15.044Z,61.90
2018-02-22T20:06:51.611Z,61.90
2018-02-22T20:09:31.751Z,62.60
2018-02-22T20:12:05.755Z,63.00
2018-02-22T20:14:40.229Z,63.50
2018-02-22T20:17:16.351Z,64.00
2018-02-22T20:19:48.679Z,64.10
2018-02-22T20:22:22.058Z,63.70
2018-02-22T20:24:52.370Z,62.90
2018-02-22T20:27:24.326Z,63.10
2018-02-22T20:29:54.633Z,63.60
2018-02-22T20:32:32.492Z,61.40
2018-02-22T20:35:05.076Z,61.60
2018-02-22T20:37:36.280Z,62.20
2018-02-22T20:40:13.694Z,62.30
2018-02-22T20:42:44.610Z,62.20
2018-02-22T20:45:23.143Z,62.10
2018-02-22T20:59:32.303Z,61.10
2018-02-22T21:02:02.805Z,61.30
2018-02-22T21:04:32.822Z,61.40
2018-02-22T21:07:04.661Z,62.30
2018-02-22T21:09:35.692Z,60.20
2018-02-22T21:12:10.569Z,61.70
2018-02-22T21:14:51.979Z,61.60
2018-02-22T21:17:41.492Z,61.50
2018-02-22T21:20:11.634Z,61.50
2018-02-22T21:22:41.968Z,61.50
2018-02-22T21:25:12.914Z,61.40
2018-02-22T21:27:50.284Z,61.40
2018-02-22T21:30:22.263Z,60.20
2018-02-22T21:32:52.777Z,60.30
2018-02-22T21:35:27.992Z,60.80
2018-02-22T21:37:58.083Z,60.90
2018-02-22T21:40:31.465Z,61.50
2018-02-22T21:43:13.833Z,60.00
2018-02-22T21:45:56.612Z,60.40
2018-02-22T21:48:29.719Z,60.90
2018-02-22T21:51:10.551Z,61.20
2018-02-22T21:53:48.049Z,61.30
2018-02-22T21:56:18.936Z,60.90
2018-02-22T21:58:49.496Z,60.40
2018-02-22T22:01:38.092Z,60.10
2018-02-22T22:04:15.309Z,60.50
2018-02-22T22:06:47.115Z,60.20
2018-02-22T22:09:18.174Z,60.20
2018-02-22T22:11:54.939Z,60.10
2018-02-22T22:14:30.411Z,60.70
2018-02-22T22:17:02.807Z,60.80
2018-02-22T22:19:32.648Z,58.80
2018-02-22T22:22:04.420Z,58.60
2018-02-22T22:25:07.365Z,58.60
2018-02-22T22:27:38.983Z,57.90
2018-02-22T22:30:14.441Z,58.60
2018-02-22T22:32:47.742Z,58.20
2018-02-22T22:35:17.507Z,58.20
2018-02-22T22:37:47.133Z,58.10
2018-02-22T22:40:19.181Z,57.70
2018-02-22T22:42:49.736Z,57.30
2018-02-22T22:45:22.092Z,56.90
2018-02-22T22:48:12.477Z,56.50
2018-02-22T22:51:00.639Z,56.50
2018-02-22T22:53:30.636Z,56.50
2018-02-22T22:56:00.427Z,56.80
2018-02-22T22:58:29.940Z,56.70
2018-02-22T23:00:59.904Z,57.20
2018-02-22T23:03:46.586Z,57.40
2018-02-22T23:06:29.091Z,57.30
2018-02-22T23:08:58.708Z,57.70
2018-02-22T23:11:29.317Z,57.10
2018-02-22T23:13:59.827Z,56.50
2018-02-22T23:16:29.266Z,56.50
2018-02-22T23:18:58.851Z,57.00
2018-02-22T23:21:28.951Z,57.40
2018-02-22T23:23:58.933Z,57.60
2018-02-22T23:26:29.120Z,57.90
2018-02-22T23:29:00.237Z,58.00
2018-02-22T23:31:30.043Z,57.70
2018-02-22T23:34:07.822Z,57.70
2018-02-22T23:36:37.658Z,58.30
2018-02-22T23:39:07.874Z,58.20
2018-02-22T23:41:39.317Z,57.40
2018-02-22T23:44:09.086Z,58.20
2018-02-22T23:46:38.744Z,57.90
2018-02-22T23:49:08.718Z,57.90
2018-02-22T23:51:41.010Z,58.20
2018-02-22T23:54:11.253Z,58.20
2018-02-22T23:56:40.958Z,58.30
2018-02-22T23:59:21.259Z,58.70
